This is the latest recevied weather packets stored in our database for station/object KE8DAF-15. If no packets are shown the sender has not sent any weather packets the latest 10 day(s).
| Time | Temp. | Humidity | Pressure | Rain* | Wind** | Luminosity | Snow |
|---|---|---|---|---|---|---|---|
| 1777938905 | 8.33° C | 91% | 982.7 hPa | 2.03 mm | - | - | - |
| 1777938604 | 8.33° C | 90% | 982.5 hPa | 1.02 mm | - | - | - |
| 1777938304 | 8.89° C | 88% | 982.6 hPa | 0.25 mm | - | - | - |
| 1777938004 | 8.89° C | 87% | 982.3 hPa | 0.25 mm | - | - | - |
| 1777937704 | 9.44° C | 86% | 981.9 hPa | 0.25 mm | - | - | - |
| 1777937404 | 9.44° C | 85% | 981.7 hPa | 0.25 mm | - | - | - |
| 1777937106 | 10° C | 84% | 981.4 hPa | 0.25 mm | - | - | - |
| 1777936805 | 10° C | 82% | 981.6 hPa | 0.25 mm | - | - | - |
| 1777936504 | 10.56° C | 79% | 981.7 hPa | 0.25 mm | - | - | - |
| 1777936204 | 11.11° C | 75% | 981.9 hPa | 0 mm | - | - | - |
| 1777935904 | 11.67° C | 69% | 982.2 hPa | 0 mm | - | - | - |
| 1777935604 | 12.78° C | 62% | 981.5 hPa | 0 mm | - | - | - |
| 1777935306 | 13.33° C | 58% | 981.4 hPa | 0 mm | - | - | - |
| 1777935004 | 14.44° C | 53% | 981 hPa | 0 mm | - | - | - |
| 1777934704 | 16.11° C | 48% | 980.8 hPa | 0 mm | - | - | - |
| 1777934404 | 20° C | 38% | 980.9 hPa | 0 mm | - | - | - |
| 1777934106 | 21.11° C | 37% | 979.8 hPa | 0 mm | - | - | - |
| 1777933804 | 21.67° C | 37% | 979.6 hPa | 0 mm | - | - | - |
| 1777933506 | 21.67° C | 37% | 979.6 hPa | 0 mm | - | - | - |
| 1777933205 | 21.67° C | 37% | 979.6 hPa | 0 mm | - | - | - |
| 1777932904 | 21.67° C | 37% | 979.5 hPa | 0 mm | - | - | - |
| 1777932604 | 21.67° C | 37% | 979.6 hPa | 0 mm | - | - | - |
| 1777932305 | 21.67° C | 37% | 979.5 hPa | 0 mm | - | - | - |
| 1777932004 | 21.67° C | 37% | 979.5 hPa | 0 mm | - | - | - |
| 1777931705 | 21.67° C | 37% | 979.5 hPa | 0 mm | - | - | - |
* Rain latest hour (hover to see other rain measurements)
** Current wind speed in m/s (hover to see current wind gust speed)